Time;durP1;ratioP1;P1;durP2;ratioP2;P2;SDS_P1;SDS_P2;PMS_P1;PMS_P2;Temp;Humidity;BMP_temperature;BMP_pressure;BME280_temperature;BME280_humidity;BME280_pressure;Samples;Min_cycle;Max_cycle;Signal;HPM_P1;HPM_P2
2022/03/08 00:00:38;;;;;;;14.65;13.33;;;;;;;1.87;62.42;100390.55;452177;116;922634;-71
2022/03/08 00:01:42;;;;;;;13.71;12.58;;;;;;;1.88;62.61;100394.89;447847;116;922616;-70
2022/03/08 00:02:45;;;;;;;15.40;14.05;;;;;;;1.86;62.69;100381.63;458035;114;930438;-71
2022/03/08 00:03:49;;;;;;;13.49;12.14;;;;;;;1.88;62.66;100387.67;453255;116;922456;-70
2022/03/08 00:04:52;;;;;;;15.34;13.96;;;;;;;1.90;63.06;100387.52;453429;116;930380;-70
2022/03/08 00:05:56;;;;;;;14.31;13.11;;;;;;;1.91;63.16;100379.30;454906;116;922536;-70
2022/03/08 00:07:00;;;;;;;15.49;13.95;;;;;;;1.92;63.23;100380.98;452415;116;922513;-71
2022/03/08 00:08:04;;;;;;;13.27;12.06;;;;;;;1.91;63.26;100381.98;456524;114;930857;-70
2022/03/08 00:09:07;;;;;;;14.13;12.93;;;;;;;1.92;63.30;100383.67;459525;114;922715;-71
2022/03/08 00:10:11;;;;;;;13.41;12.31;;;;;;;1.92;63.33;100380.14;456572;113;930365;-70
2022/03/08 00:11:16;;;;;;;12.90;11.85;;;;;;;1.91;63.36;100384.67;456236;113;922638;-70
2022/03/08 00:12:19;;;;;;;12.86;11.76;;;;;;;1.90;63.38;100382.98;454256;116;922635;-70
2022/03/08 00:13:23;;;;;;;12.74;11.68;;;;;;;1.90;63.40;100377.61;460018;114;922717;-70
2022/03/08 00:14:26;;;;;;;13.81;12.69;;;;;;;1.90;63.58;100376.76;446694;114;923154;-68
2022/03/08 00:15:29;;;;;;;13.61;12.40;;;;;;;1.90;63.63;100382.98;452772;115;922617;-71
2022/03/08 00:16:33;;;;;;;13.90;12.54;;;;;;;1.90;63.68;100382.14;454634;115;922551;-70
2022/03/08 00:17:39;;;;;;;14.44;13.07;;;;;;;1.89;63.54;100381.30;451759;115;922540;-69
2022/03/08 00:18:44;;;;;;;13.03;12.03;;;;;;;1.90;63.53;100379.45;448420;116;922701;-70
2022/03/08 00:19:47;;;;;;;13.90;12.73;;;;;;;1.87;63.60;100375.26;445720;116;922763;-71
2022/03/08 00:20:51;;;;;;;11.92;10.94;;;;;;;1.86;63.60;100373.57;449125;114;922634;-70
2022/03/08 00:21:54;;;;;;;13.32;12.19;;;;;;;1.85;63.66;100376.41;452687;115;930631;-70
2022/03/08 00:22:58;;;;;;;12.77;11.73;;;;;;;1.84;63.71;100369.34;454037;115;930416;-70
2022/03/08 00:24:02;;;;;;;12.52;11.45;;;;;;;1.84;63.75;100374.72;453020;115;930412;-69
2022/03/08 00:25:07;;;;;;;12.71;11.71;;;;;;;1.83;63.81;100376.56;452284;115;922558;-69
2022/03/08 00:26:11;;;;;;;12.96;11.85;;;;;;;1.84;63.78;100374.72;446982;116;930450;-70
2022/03/08 00:27:14;;;;;;;12.30;11.33;;;;;;;1.82;63.78;100369.50;447680;116;922547;-70
2022/03/08 00:28:19;;;;;;;13.11;12.11;;;;;;;1.81;63.86;100367.84;453128;115;930377;-69
2022/03/08 00:29:23;;;;;;;14.62;13.31;;;;;;;1.81;63.93;100373.22;451081;116;922856;-70
2022/03/08 00:30:27;;;;;;;12.80;11.80;;;;;;;1.82;64.00;100372.19;454690;116;922580;-68
2022/03/08 00:31:31;;;;;;;13.18;12.14;;;;;;;1.84;64.06;100366.66;455363;114;922721;-70
2022/03/08 00:32:34;;;;;;;14.47;12.38;;;;;;;1.85;64.07;100368.34;453497;116;922571;-71
2022/03/08 00:33:37;;;;;;;13.35;12.23;;;;;;;1.85;63.95;100361.12;453846;114;930418;-70
2022/03/08 00:34:41;;;;;;;11.05;10.18;;;;;;;1.83;63.85;100364.97;453734;114;922631;-70
2022/03/08 00:35:44;;;;;;;10.16;9.35;;;;;;;1.79;63.82;100364.47;450668;115;923139;-70
2022/03/08 00:36:48;;;;;;;10.65;9.70;;;;;;;1.76;63.80;100367.50;452704;115;922717;-70
2022/03/08 00:37:53;;;;;;;11.45;10.56;;;;;;;1.75;63.91;100360.44;447667;116;922561;-70
2022/03/08 00:38:58;;;;;;;10.72;9.88;;;;;;;1.73;63.90;100358.90;450751;115;922631;-70
2022/03/08 00:40:04;;;;;;;11.17;10.29;;;;;;;1.71;64.06;100356.37;458979;114;922526;-70
2022/03/08 00:41:08;;;;;;;11.93;10.96;;;;;;;1.72;64.21;100358.05;457892;114;923530;-69
2022/03/08 00:42:12;;;;;;;11.79;10.86;;;;;;;1.72;64.13;100355.37;456442;113;922502;-69
2022/03/08 00:43:15;;;;;;;12.74;11.70;;;;;;;1.72;64.16;100360.74;455452;113;922837;-71
2022/03/08 00:44:19;;;;;;;12.06;11.05;;;;;;;1.72;64.34;100357.21;455082;114;922844;-69
2022/03/08 00:45:23;;;;;;;12.90;11.64;;;;;;;1.72;64.44;100358.05;457365;113;923562;-72
2022/03/08 00:46:28;;;;;;;11.73;10.81;;;;;;;1.72;64.55;100360.74;456459;113;922616;-70
2022/03/08 00:47:31;;;;;;;12.96;11.86;;;;;;;1.74;64.58;100358.75;456394;114;922543;-68
2022/03/08 00:48:35;;;;;;;11.47;10.56;;;;;;;1.75;64.50;100357.75;454975;114;930436;-70
2022/03/08 00:49:39;;;;;;;12.14;11.14;;;;;;;1.75;64.46;100348.84;447109;116;923218;-72
2022/03/08 00:50:42;;;;;;;13.03;11.93;;;;;;;1.76;64.51;100351.38;454538;115;930749;-70
2022/03/08 00:51:48;;;;;;;11.43;10.51;;;;;;;1.76;64.58;100359.44;454283;115;922658;-70
2022/03/08 00:52:53;;;;;;;11.84;10.76;;;;;;;1.78;64.61;100354.72;452916;114;922699;-71
2022/03/08 00:53:56;;;;;;;12.01;10.99;;;;;;;1.79;64.55;100353.72;454921;115;922692;-69
2022/03/08 00:55:00;;;;;;;12.41;11.41;;;;;;;1.77;64.55;100344.96;454678;115;930271;-70
2022/03/08 00:56:04;;;;;;;13.09;12.05;;;;;;;1.77;64.64;100347.66;451655;115;930370;-70
2022/03/08 00:57:08;;;;;;;13.36;12.22;;;;;;;1.76;64.62;100346.00;451610;115;923348;-69
2022/03/08 00:58:11;;;;;;;12.77;11.63;;;;;;;1.75;64.67;100347.00;450585;115;922559;-68
2022/03/08 00:59:15;;;;;;;13.45;12.36;;;;;;;1.75;64.78;100344.30;450612;114;930753;-70
2022/03/08 01:00:21;;;;;;;14.32;13.13;;;;;;;1.78;64.83;100351.19;453439;115;930369;-69
2022/03/08 01:01:24;;;;;;;12.85;11.82;;;;;;;1.78;64.84;100343.13;450434;115;923005;-71
2022/03/08 01:02:28;;;;;;;14.42;13.23;;;;;;;1.79;65.01;100344.81;450576;115;922555;-70
2022/03/08 01:03:32;;;;;;;15.36;14.08;;;;;;;1.81;65.07;100345.50;451723;114;923040;-70
2022/03/08 01:04:36;;;;;;;14.68;13.49;;;;;;;1.85;65.15;100341.47;450648;116;922675;-70
2022/03/08 01:05:39;;;;;;;13.75;12.64;;;;;;;1.88;65.26;100343.81;452618;116;922610;-69
2022/03/08 01:06:43;;;;;;;15.65;14.39;;;;;;;1.91;65.29;100343.50;451001;115;930432;-69
2022/03/08 01:07:47;;;;;;;15.66;14.32;;;;;;;1.95;65.34;100336.78;452480;116;922622;-72
2022/03/08 01:08:50;;;;;;;16.38;15.11;;;;;;;1.97;65.33;100338.31;456093;112;922560;-68
2022/03/08 01:09:53;;;;;;;16.36;14.99;;;;;;;2.01;65.34;100339.66;465074;112;922856;-71
2022/03/08 01:10:57;;;;;;;15.54;14.28;;;;;;;2.04;65.30;100331.23;465520;112;922585;-70
2022/03/08 01:12:00;;;;;;;16.76;15.36;;;;;;;2.06;65.30;100334.61;466231;113;930337;-70
2022/03/08 01:13:04;;;;;;;16.43;15.00;;;;;;;2.08;65.25;100329.92;466088;113;922523;-70
2022/03/08 01:14:08;;;;;;;15.36;14.14;;;;;;;2.12;65.14;100332.27;464305;113;922579;-70
2022/03/08 01:15:13;;;;;;;15.84;14.54;;;;;;;2.14;65.10;100332.95;465748;113;922485;-69
2022/03/08 01:16:17;;;;;;;15.58;14.34;;;;;;;2.15;65.06;100331.95;466528;113;930284;-70
2022/03/08 01:17:21;;;;;;;16.14;14.75;;;;;;;2.17;65.12;100333.45;466755;113;922646;-69
2022/03/08 01:18:24;;;;;;;14.04;12.78;;;;;;;2.18;64.97;100332.45;468214;113;930354;-69
2022/03/08 01:19:28;;;;;;;14.29;13.07;;;;;;;2.20;64.96;100327.75;465973;113;930417;-68
2022/03/08 01:20:32;;;;;;;14.51;13.29;;;;;;;2.20;64.86;100327.75;463713;113;922544;-69
2022/03/08 01:21:37;;;;;;;14.25;12.96;;;;;;;2.20;64.70;100324.22;465379;113;930456;-69
2022/03/08 01:22:41;;;;;;;14.19;12.98;;;;;;;2.18;64.54;100320.84;468005;113;922495;-69
2022/03/08 01:23:44;;;;;;;14.08;12.99;;;;;;;2.17;64.56;100336.14;466738;113;922878;-70
2022/03/08 01:24:48;;;;;;;13.76;12.69;;;;;;;2.18;64.61;100328.91;464205;113;923308;-70
2022/03/08 01:25:51;;;;;;;13.08;12.01;;;;;;;2.18;64.45;100334.29;466078;113;922904;-70
2022/03/08 01:26:56;;;;;;;14.18;13.09;;;;;;;2.15;64.26;100327.38;465658;113;922589;-69
2022/03/08 01:28:00;;;;;;;14.15;13.06;;;;;;;2.11;64.21;100328.73;464128;113;922702;-69
2022/03/08 01:29:04;;;;;;;14.25;13.02;;;;;;;2.09;64.34;100325.39;466011;113;922599;-69
2022/03/08 01:30:10;;;;;;;15.88;14.47;;;;;;;2.09;64.48;100325.39;466729;113;922533;-68
2022/03/08 01:31:14;;;;;;;15.63;14.30;;;;;;;2.11;64.53;100331.42;464110;113;930325;-69
2022/03/08 01:32:18;;;;;;;15.32;14.11;;;;;;;2.13;64.53;100329.42;466186;113;923079;-69
2022/03/08 01:33:22;;;;;;;15.51;14.25;;;;;;;2.15;64.48;100326.57;467086;113;922645;-68
2022/03/08 01:34:25;;;;;;;15.68;14.46;;;;;;;2.16;64.44;100328.23;465273;113;930451;-69
2022/03/08 01:35:29;;;;;;;15.13;13.93;;;;;;;2.16;64.37;100326.38;464529;113;922541;-69
2022/03/08 01:36:32;;;;;;;14.21;13.11;;;;;;;2.18;64.34;100331.60;466098;113;922947;-69
2022/03/08 01:37:36;;;;;;;15.98;14.58;;;;;;;2.18;64.29;100326.22;464150;113;922516;-70
2022/03/08 01:38:39;;;;;;;14.56;13.44;;;;;;;2.19;64.24;100327.91;464799;113;930340;-70
2022/03/08 01:39:42;;;;;;;14.35;13.24;;;;;;;2.18;64.30;100326.22;465683;113;923031;-67
2022/03/08 01:40:46;;;;;;;15.11;13.71;;;;;;;2.19;64.21;100331.45;466349;113;922587;-71
2022/03/08 01:41:49;;;;;;;14.50;13.33;;;;;;;2.20;64.26;100329.59;465505;113;930368;-67
2022/03/08 01:42:54;;;;;;;14.91;13.65;;;;;;;2.21;64.22;100332.09;464499;113;922595;-69
2022/03/08 01:43:57;;;;;;;15.08;13.64;;;;;;;2.22;64.19;100327.56;464669;113;922539;-69
2022/03/08 01:45:01;;;;;;;14.58;13.48;;;;;;;2.23;64.15;100329.25;466351;113;922540;-68
2022/03/08 01:46:04;;;;;;;15.16;13.96;;;;;;;2.22;64.18;100328.41;464818;113;923058;-70
2022/03/08 01:47:14;;;;;;;14.68;13.44;;;;;;;2.23;64.17;100327.41;464755;113;923282;-68
2022/03/08 01:48:17;;;;;;;15.47;14.27;;;;;;;2.24;64.04;100333.62;466867;113;930346;-69
2022/03/08 01:49:22;;;;;;;14.24;13.09;;;;;;;2.22;63.95;100324.87;465261;113;923201;-69
2022/03/08 01:50:27;;;;;;;15.22;14.02;;;;;;;2.21;63.96;100329.41;463901;113;922700;-69
2022/03/08 01:51:30;;;;;;;14.54;13.34;;;;;;;2.21;64.05;100332.09;466147;113;923445;-68
2022/03/08 01:52:34;;;;;;;15.73;14.37;;;;;;;2.22;64.05;100331.09;466538;113;922654;-70
2022/03/08 01:53:40;;;;;;;15.30;14.04;;;;;;;2.24;64.10;100328.25;464898;112;922718;-70
2022/03/08 01:54:43;;;;;;;15.98;14.64;;;;;;;2.26;64.06;100334.31;467101;113;925009;-69
2022/03/08 01:55:46;;;;;;;15.05;13.84;;;;;;;2.26;63.99;100337.00;464561;113;922599;-71
2022/03/08 01:56:52;;;;;;;15.23;13.86;;;;;;;2.26;63.99;100331.63;463324;113;930404;-70
2022/03/08 01:57:55;;;;;;;16.74;15.40;;;;;;;2.26;64.00;100326.23;465910;112;922980;-70
2022/03/08 01:58:58;;;;;;;15.11;13.93;;;;;;;2.28;63.91;100324.20;467625;113;923099;-71
2022/03/08 02:00:05;;;;;;;15.53;14.14;;;;;;;2.28;63.94;100324.20;466260;113;922606;-69
2022/03/08 02:01:10;;;;;;;14.66;13.53;;;;;;;2.28;63.99;100327.73;465108;113;922752;-69
2022/03/08 02:02:14;;;;;;;15.50;14.09;;;;;;;2.28;63.96;100326.89;467889;113;923075;-69
2022/03/08 02:03:18;;;;;;;14.81;13.59;;;;;;;2.29;63.92;100325.89;466242;113;930361;-68
2022/03/08 02:04:21;;;;;;;15.47;14.21;;;;;;;2.28;63.90;100321.52;464625;113;930345;-69
2022/03/08 02:05:26;;;;;;;14.63;13.41;;;;;;;2.26;63.95;100323.55;464098;113;930476;-67
2022/03/08 02:06:30;;;;;;;13.61;12.34;;;;;;;2.25;63.92;100319.17;466261;113;922555;-71
2022/03/08 02:07:33;;;;;;;12.96;11.96;;;;;;;2.24;63.81;100322.87;463046;113;922559;-70
2022/03/08 02:08:37;;;;;;;12.61;11.63;;;;;;;2.22;63.73;100327.56;465060;113;922811;-70
2022/03/08 02:09:41;;;;;;;12.64;11.53;;;;;;;2.20;63.77;100316.99;467144;113;922806;-69
2022/03/08 02:10:44;;;;;;;12.99;11.88;;;;;;;2.20;63.83;100321.53;464157;113;923057;-69
2022/03/08 02:11:48;;;;;;;12.80;11.71;;;;;;;2.18;63.71;100321.69;466865;111;922740;-72
2022/03/08 02:12:51;;;;;;;13.04;11.94;;;;;;;2.17;63.72;100322.69;467612;111;922841;-69
2022/03/08 02:13:55;;;;;;;13.37;12.27;;;;;;;2.16;63.73;100328.23;466960;111;922982;-68
2022/03/08 02:14:58;;;;;;;13.59;12.49;;;;;;;2.14;63.67;100324.88;467599;111;923040;-70
2022/03/08 02:16:02;;;;;;;13.29;12.25;;;;;;;2.12;63.69;100314.28;469120;111;922826;-69
2022/03/08 02:17:06;;;;;;;13.51;12.39;;;;;;;2.12;63.75;100318.81;468660;111;930315;-69
2022/03/08 02:18:10;;;;;;;14.13;12.67;;;;;;;2.10;63.76;100327.89;467521;111;930367;-70
2022/03/08 02:19:14;;;;;;;13.75;12.63;;;;;;;2.09;63.65;100320.82;468800;111;922932;-70
2022/03/08 02:20:19;;;;;;;13.49;12.39;;;;;;;2.08;63.69;100315.63;468378;111;923142;-69
2022/03/08 02:21:22;;;;;;;13.34;12.30;;;;;;;2.07;63.76;100319.32;467875;111;923075;-68
2022/03/08 02:22:26;;;;;;;13.68;12.49;;;;;;;2.07;63.77;100322.02;467914;111;922663;-71
2022/03/08 02:23:29;;;;;;;13.59;12.54;;;;;;;2.06;63.75;100318.48;467877;111;922963;-69
2022/03/08 02:24:33;;;;;;;13.30;12.06;;;;;;;2.05;63.75;100316.80;468439;111;922618;-70
2022/03/08 02:25:36;;;;;;;14.51;13.16;;;;;;;2.06;63.80;100317.64;467663;111;922675;-69
2022/03/08 02:26:40;;;;;;;13.62;12.58;;;;;;;2.05;63.77;100315.95;469030;111;922668;-69
2022/03/08 02:27:46;;;;;;;13.60;11.97;;;;;;;2.05;63.87;100321.33;468743;111;930326;-70
2022/03/08 02:28:51;;;;;;;13.18;12.08;;;;;;;2.05;63.84;100316.80;468055;111;922937;-71
2022/03/08 02:29:54;;;;;;;12.85;11.75;;;;;;;2.05;63.79;100311.41;467072;111;922757;-69
2022/03/08 02:30:58;;;;;;;12.74;11.73;;;;;;;2.06;63.76;100315.79;468462;111;930489;-69
2022/03/08 02:32:02;;;;;;;12.93;11.91;;;;;;;2.05;63.71;100311.41;467229;111;930306;-69
2022/03/08 02:33:07;;;;;;;13.18;12.07;;;;;;;2.05;63.76;100315.95;468637;111;922641;-71
2022/03/08 02:34:11;;;;;;;12.57;11.53;;;;;;;2.06;63.73;100317.64;468359;111;930308;-69
2022/03/08 02:35:17;;;;;;;13.54;12.39;;;;;;;2.04;63.77;100317.80;466552;111;922718;-69
2022/03/08 02:36:20;;;;;;;12.77;11.69;;;;;;;2.05;63.74;100307.87;469731;111;922543;-70
2022/03/08 02:37:23;;;;;;;12.79;11.69;;;;;;;2.04;63.71;100320.48;466817;111;922446;-69
2022/03/08 02:38:27;;;;;;;13.28;12.21;;;;;;;2.04;63.71;100311.61;467772;111;922509;-70
2022/03/08 02:39:31;;;;;;;12.69;11.60;;;;;;;2.04;63.68;100315.11;468617;111;922826;-70
2022/03/08 02:40:37;;;;;;;11.76;10.73;;;;;;;2.04;63.68;100314.30;467638;111;922560;-70
2022/03/08 02:41:40;;;;;;;11.63;10.51;;;;;;;2.04;63.65;100315.11;467873;111;922594;-71
2022/03/08 02:42:44;;;;;;;12.40;11.34;;;;;;;2.04;63.65;100315.11;467095;111;922621;-72
2022/03/08 02:43:48;;;;;;;12.07;10.95;;;;;;;2.04;63.64;100315.11;466485;111;922628;-70
2022/03/08 02:44:51;;;;;;;12.68;11.61;;;;;;;2.05;63.58;100313.26;467116;111;922752;-69
2022/03/08 02:45:55;;;;;;;12.35;11.22;;;;;;;2.03;63.57;100318.83;467661;111;930352;-69
2022/03/08 02:47:05;;;;;;;13.18;12.18;;;;;;;2.04;63.62;100319.67;467598;111;922450;-69
2022/03/08 02:48:09;;;;;;;12.15;11.11;;;;;;;2.03;63.56;100313.45;467334;111;922583;-69
2022/03/08 02:49:13;;;;;;;13.65;12.45;;;;;;;2.02;63.59;100316.30;467603;111;930431;-69
2022/03/08 02:50:17;;;;;;;12.19;11.19;;;;;;;2.01;63.53;100320.83;467384;111;922545;-70
2022/03/08 02:51:20;;;;;;;12.53;11.53;;;;;;;2.02;63.55;100314.45;466641;111;922636;-69
2022/03/08 02:52:24;;;;;;;12.39;11.43;;;;;;;2.00;63.49;100323.67;468305;111;922940;-70
2022/03/08 02:53:27;;;;;;;12.31;11.24;;;;;;;1.98;63.47;100321.17;467463;111;922867;-69
2022/03/08 02:54:31;;;;;;;12.81;11.76;;;;;;;1.97;63.48;100324.87;466720;111;922609;-69
2022/03/08 02:55:36;;;;;;;12.85;11.71;;;;;;;1.98;63.51;100323.02;468205;111;922519;-69
2022/03/08 02:56:40;;;;;;;11.95;10.92;;;;;;;1.96;63.63;100325.02;467208;111;922581;-70
2022/03/08 02:57:43;;;;;;;12.28;11.28;;;;;;;1.95;63.61;100324.18;457757;114;922504;-69
2022/03/08 02:58:46;;;;;;;12.49;11.37;;;;;;;1.95;63.50;100321.49;448962;116;930829;-69
2022/03/08 02:59:50;;;;;;;12.07;11.08;;;;;;;1.94;63.58;100325.18;454704;115;923562;-68
2022/03/08 03:00:53;;;;;;;12.08;11.16;;;;;;;1.94;63.60;100329.71;450090;116;922531;-70
2022/03/08 03:01:57;;;;;;;11.13;10.15;;;;;;;1.93;63.61;100331.56;450070;116;930446;-69
2022/03/08 03:03:00;;;;;;;12.00;10.99;;;;;;;1.94;63.63;100338.63;459210;113;930081;-69
2022/03/08 03:04:04;;;;;;;12.34;10.99;;;;;;;1.94;63.69;100335.94;458439;114;930366;-69
2022/03/08 03:05:09;;;;;;;11.25;10.36;;;;;;;1.95;63.68;100326.87;459252;114;922677;-70
2022/03/08 03:06:12;;;;;;;11.68;10.71;;;;;;;1.96;63.69;100333.09;457064;114;922709;-69
2022/03/08 03:07:16;;;;;;;11.87;10.97;;;;;;;1.96;63.67;100331.24;458660;113;930280;-70
2022/03/08 03:08:19;;;;;;;11.82;10.88;;;;;;;1.97;63.56;100329.40;457798;114;922490;-70
2022/03/08 03:09:23;;;;;;;11.71;10.71;;;;;;;1.96;63.68;100328.55;458601;114;930266;-69
2022/03/08 03:10:26;;;;;;;11.67;10.62;;;;;;;1.98;63.61;100334.63;460192;113;922884;-68
2022/03/08 03:11:30;;;;;;;11.95;11.03;;;;;;;1.97;63.52;100334.77;456376;115;922585;-69
2022/03/08 03:12:33;;;;;;;12.79;11.84;;;;;;;1.96;63.54;100331.24;466585;112;922525;-69
2022/03/08 03:13:37;;;;;;;13.08;11.97;;;;;;;1.95;63.59;100332.24;466536;111;922534;-70
2022/03/08 03:14:40;;;;;;;13.74;12.64;;;;;;;1.95;63.58;100337.62;465876;112;930464;-69
2022/03/08 03:15:43;;;;;;;12.89;11.75;;;;;;;1.96;63.56;100338.47;466829;112;922599;-69
2022/03/08 03:16:47;;;;;;;13.66;12.57;;;;;;;1.95;63.54;100329.55;466655;111;922561;-70
2022/03/08 03:17:50;;;;;;;12.79;11.68;;;;;;;1.96;63.56;100331.24;466240;111;930419;-68
2022/03/08 03:18:54;;;;;;;14.39;13.09;;;;;;;1.96;63.59;100328.55;466945;112;922545;-69
2022/03/08 03:19:57;;;;;;;14.07;12.95;;;;;;;1.97;63.47;100330.24;466884;111;922624;-70
2022/03/08 03:21:00;;;;;;;12.85;11.76;;;;;;;1.97;63.47;100330.24;467324;112;922552;-70
2022/03/08 03:22:05;;;;;;;13.81;12.69;;;;;;;1.98;63.66;100323.02;467256;112;922497;-70
2022/03/08 03:23:08;;;;;;;13.35;12.26;;;;;;;1.98;63.63;100331.09;467097;111;930396;-68
2022/03/08 03:24:12;;;;;;;13.11;12.09;;;;;;;1.98;63.59;100326.55;466815;111;930470;-70
2022/03/08 03:25:16;;;;;;;13.81;12.68;;;;;;;2.00;63.53;100327.20;466220;112;922583;-68
2022/03/08 03:26:20;;;;;;;13.85;12.72;;;;;;;2.00;63.40;100329.05;465761;112;922916;-67
2022/03/08 03:27:23;;;;;;;13.21;12.10;;;;;;;2.00;63.42;100323.67;467142;111;930387;-68
2022/03/08 03:28:26;;;;;;;12.79;11.78;;;;;;;2.00;63.41;100329.05;467632;112;922949;-70
2022/03/08 03:29:30;;;;;;;14.11;12.91;;;;;;;2.00;63.35;100335.27;465691;112;923374;-68
2022/03/08 03:30:33;;;;;;;13.21;12.19;;;;;;;2.01;63.37;100323.52;467042;111;923056;-70
2022/03/08 03:31:36;;;;;;;13.52;12.33;;;;;;;2.00;63.39;100327.20;465402;112;930425;-69
2022/03/08 03:32:40;;;;;;;13.78;12.23;;;;;;;2.01;63.32;100336.12;465606;112;922547;-68
2022/03/08 03:33:43;;;;;;;13.41;12.03;;;;;;;2.01;63.32;100336.12;465636;111;930396;-70
2022/03/08 03:34:47;;;;;;;12.46;11.46;;;;;;;2.01;63.37;100326.20;465659;112;930322;-69
2022/03/08 03:35:50;;;;;;;13.98;12.79;;;;;;;2.01;63.29;100325.36;465129;112;922955;-69
2022/03/08 03:36:54;;;;;;;13.81;12.71;;;;;;;2.00;63.20;100335.27;466101;112;922699;-69
2022/03/08 03:37:57;;;;;;;14.26;12.99;;;;;;;2.01;63.19;100331.59;469082;111;922659;-70
2022/03/08 03:39:00;;;;;;;14.53;13.29;;;;;;;2.01;63.24;100328.05;467933;112;923005;-68
2022/03/08 03:40:06;;;;;;;14.56;13.08;;;;;;;2.01;63.26;100333.43;465656;112;922600;-68
2022/03/08 03:41:10;;;;;;;13.33;12.32;;;;;;;2.01;63.29;100326.20;467583;111;922656;-70
2022/03/08 03:42:14;;;;;;;13.93;12.75;;;;;;;2.02;63.33;100322.52;466334;112;922699;-71
2022/03/08 03:43:17;;;;;;;12.95;11.84;;;;;;;2.03;63.30;100324.20;467788;112;930338;-69
2022/03/08 03:44:20;;;;;;;13.18;11.97;;;;;;;2.04;63.32;100325.86;466510;111;922538;-69
2022/03/08 03:45:24;;;;;;;12.27;11.19;;;;;;;2.04;63.25;100325.86;466494;111;922510;-70
2022/03/08 03:46:27;;;;;;;13.25;12.25;;;;;;;2.05;63.20;100329.39;466869;112;922958;-69
2022/03/08 03:47:31;;;;;;;12.50;11.51;;;;;;;2.04;63.22;100328.55;466186;111;930409;-68
2022/03/08 03:48:34;;;;;;;12.68;11.68;;;;;;;2.05;63.18;100332.92;465994;111;923202;-70
2022/03/08 03:49:38;;;;;;;13.43;12.20;;;;;;;2.03;63.22;100329.58;466630;112;922716;-68
2022/03/08 03:50:42;;;;;;;13.23;12.14;;;;;;;2.03;63.29;100334.12;465842;112;930637;-68
2022/03/08 03:51:47;;;;;;;13.80;12.72;;;;;;;2.03;63.33;100331.43;466382;111;922950;-70
2022/03/08 03:52:50;;;;;;;13.75;12.42;;;;;;;2.03;63.33;100329.58;465784;112;922577;-70
2022/03/08 03:53:53;;;;;;;12.72;11.63;;;;;;;2.04;63.37;100328.55;465819;112;922594;-70
2022/03/08 03:54:57;;;;;;;13.02;11.84;;;;;;;2.05;63.38;100330.23;467382;111;922811;-68
2022/03/08 03:56:00;;;;;;;12.93;11.84;;;;;;;2.06;63.26;100336.46;467652;111;922486;-71
2022/03/08 03:57:05;;;;;;;12.88;11.78;;;;;;;2.04;63.16;100331.23;465392;112;922964;-69
2022/03/08 03:58:08;;;;;;;12.87;11.86;;;;;;;2.03;63.19;100331.43;469237;111;930389;-69
2022/03/08 03:59:12;;;;;;;13.06;12.01;;;;;;;2.03;63.25;100329.58;468957;112;922746;-69
2022/03/08 04:00:16;;;;;;;12.55;11.61;;;;;;;2.01;63.23;100331.59;466256;112;922746;-69
2022/03/08 04:01:19;;;;;;;12.81;11.84;;;;;;;2.02;63.32;100332.43;465676;111;922556;-70
2022/03/08 04:02:24;;;;;;;13.74;12.53;;;;;;;2.02;63.40;100335.96;467110;112;922543;-69
2022/03/08 04:03:28;;;;;;;13.17;11.98;;;;;;;2.03;63.39;100329.58;465343;112;922827;-65
2022/03/08 04:04:31;;;;;;;12.94;11.95;;;;;;;2.05;63.44;100332.08;466857;111;922589;-69
2022/03/08 04:05:35;;;;;;;13.38;12.22;;;;;;;2.06;63.39;100331.92;466477;112;923980;-69
2022/03/08 04:06:38;;;;;;;13.62;12.43;;;;;;;2.06;63.32;100331.92;466130;112;922579;-68
2022/03/08 04:07:42;;;;;;;12.83;11.80;;;;;;;2.07;63.36;100330.08;466013;111;930456;-69
2022/03/08 04:08:45;;;;;;;13.33;12.23;;;;;;;2.07;63.33;100336.30;465882;112;922970;-68
2022/03/08 04:09:49;;;;;;;12.48;11.48;;;;;;;2.08;63.33;100327.23;460341;114;923000;-69
2022/03/08 04:10:53;;;;;;;13.31;12.15;;;;;;;2.08;63.28;100332.61;456810;112;930391;-69
2022/03/08 04:11:56;;;;;;;12.40;11.40;;;;;;;2.08;63.24;100327.23;466619;111;922585;-69
2022/03/08 04:12:59;;;;;;;11.59;10.61;;;;;;;2.09;63.24;100331.58;466014;112;922940;-69
2022/03/08 04:14:03;;;;;;;12.49;11.49;;;;;;;2.09;63.27;100331.58;467175;112;922553;-68
2022/03/08 04:15:07;;;;;;;12.88;11.90;;;;;;;2.10;63.17;100332.42;466846;111;922741;-69
2022/03/08 04:16:11;;;;;;;12.88;11.86;;;;;;;2.10;63.23;100330.58;466904;111;922473;-69
2022/03/08 04:17:15;;;;;;;11.82;10.76;;;;;;;2.11;63.28;100328.73;466064;112;923091;-69
2022/03/08 04:18:19;;;;;;;11.89;10.93;;;;;;;2.12;63.23;100332.27;468017;112;922629;-69
2022/03/08 04:19:22;;;;;;;12.43;11.38;;;;;;;2.12;63.21;100334.95;467119;111;930234;-69
2022/03/08 04:20:26;;;;;;;12.48;11.51;;;;;;;2.13;63.07;100333.95;466211;112;922895;-70
2022/03/08 04:21:29;;;;;;;14.03;12.99;;;;;;;2.10;62.90;100327.89;465875;112;930838;-69
2022/03/08 04:22:32;;;;;;;14.53;13.33;;;;;;;2.08;62.99;100324.55;466434;112;928781;-71
2022/03/08 04:23:36;;;;;;;13.81;12.50;;;;;;;2.07;63.02;100322.86;465307;112;922954;-69
2022/03/08 04:24:39;;;;;;;13.94;12.84;;;;;;;2.05;63.17;100327.55;465790;112;922601;-70
2022/03/08 04:25:43;;;;;;;13.47;12.43;;;;;;;2.06;63.19;100337.30;466561;111;922830;-69
2022/03/08 04:26:46;;;;;;;12.93;11.97;;;;;;;2.08;63.19;100329.08;465890;112;930441;-69
2022/03/08 04:27:50;;;;;;;14.50;13.18;;;;;;;2.08;63.24;100335.30;466838;112;922651;-70
2022/03/08 04:28:53;;;;;;;13.15;11.92;;;;;;;2.09;63.12;100326.20;467300;112;922525;-68
2022/03/08 04:29:56;;;;;;;13.25;12.24;;;;;;;2.10;63.10;100327.05;466224;111;922955;-69
2022/03/08 04:31:00;;;;;;;12.74;11.75;;;;;;;2.09;63.05;100331.58;465850;112;930449;-71
2022/03/08 04:32:04;;;;;;;14.04;12.84;;;;;;;2.09;63.00;100336.14;466092;111;922579;-70
2022/03/08 04:33:08;;;;;;;14.05;12.85;;;;;;;2.08;63.09;100332.61;465621;112;930382;-68
2022/03/08 04:34:12;;;;;;;13.76;12.68;;;;;;;2.08;63.12;100329.92;466170;112;922999;-69
2022/03/08 04:35:15;;;;;;;13.62;12.27;;;;;;;2.09;63.02;100333.45;468167;112;922643;-70
2022/03/08 04:36:18;;;;;;;13.96;12.79;;;;;;;2.07;62.81;100330.92;467262;111;922571;-69
2022/03/08 04:37:22;;;;;;;14.29;12.97;;;;;;;2.07;62.83;100332.77;467010;112;924684;-71
2022/03/08 04:38:26;;;;;;;14.09;12.91;;;;;;;2.06;62.83;100337.30;465812;112;922758;-68
2022/03/08 04:39:29;;;;;;;14.52;13.16;;;;;;;2.06;62.78;100333.77;466843;111;922517;-70
2022/03/08 04:40:32;;;;;;;13.53;12.43;;;;;;;2.04;62.73;100333.93;466245;111;922680;-70
2022/03/08 04:41:36;;;;;;;12.53;11.49;;;;;;;2.03;62.80;100339.50;468800;112;930355;-69
2022/03/08 04:42:41;;;;;;;14.03;12.87;;;;;;;2.01;62.90;100331.59;465706;112;930416;-68
2022/03/08 04:43:46;;;;;;;13.03;11.94;;;;;;;2.03;62.95;100334.96;466734;112;923054;-69
2022/03/08 04:44:49;;;;;;;14.04;13.03;;;;;;;2.04;62.90;100335.80;467138;112;922753;-69
2022/03/08 04:45:52;;;;;;;13.07;11.93;;;;;;;2.05;62.93;100332.08;468687;112;922927;-68
2022/03/08 04:46:56;;;;;;;13.26;12.23;;;;;;;2.06;62.92;100334.61;467239;111;930442;-69
2022/03/08 04:47:59;;;;;;;13.79;12.48;;;;;;;2.05;62.81;100332.92;465848;112;930314;-71
2022/03/08 04:49:03;;;;;;;13.86;12.60;;;;;;;2.04;62.79;100331.23;466351;112;922574;-69
2022/03/08 04:50:08;;;;;;;15.72;13.89;;;;;;;2.05;62.96;100329.39;466655;111;922589;-68